| time (UTC) | temp F | wind direction | speed knots | gust knots | rain 1hr in | rain 24hr in | rain mn in | humidity % | barometer mb |
| 20260504224001 | 74 | 0 | 0.0 | 0.0 | 0.00 | 0.18 | 0.01 | 88 | 1017.0 |
| 20260504223522 | 74 | 0 | 0.0 | 0.0 | 0.00 | 0.18 | 0.01 | 90 | 1017.1 |
| 20260504223000 | 74 | 0 | 0.0 | 0.0 | 0.00 | 0.18 | 0.01 | 91 | 1017.0 |
| 20260504222501 | 73 | 0 | 0.0 | 0.0 | 0.00 | 0.18 | 0.01 | 91 | 1017.1 |
| 20260504222001 | 73 | 0 | 0.0 | 0.0 | 0.00 | 0.18 | 0.01 | 91 | 1017.1 |
| 20260504221501 | 74 | 0 | 0.0 | 0.0 | 0.00 | 0.18 | 0.01 | 92 | 1016.8 |
| 20260504221001 | 72 | 0 | 0.0 | 0.0 | 0.00 | 0.18 | 0.01 | 98 | 1017.2 |
| 20260504220501 | 71 | 0 | 0.0 | 0.0 | 0.00 | 0.18 | 0.01 | 99 | 1017.0 |
| 20260504220022 | 71 | 0 | 0.0 | 0.0 | 0.00 | 0.18 | 0.01 | 99 | 1017.0 |
| 20260504215522 | 70 | 0 | 0.0 | 0.0 | 0.00 | 0.18 | 0.01 | 99 | 1017.0 |
| 20260504215001 | 69 | 0 | 0.0 | 0.0 | 0.00 | 0.18 | 0.01 | 99 | 1017.0 |
| 20260504214522 | 69 | 0 | 0.0 | 0.0 | 0.00 | 0.18 | 0.01 | 99 | 1017.1 |
| 20260504214001 | 68 | 0 | 0.0 | 0.0 | 0.00 | 0.18 | 0.01 | 99 | 1017.0 |
| 20260504213502 | 68 | 0 | 0.0 | 0.0 | 0.00 | 0.18 | 0.01 | 99 | 1016.9 |
| 20260504213001 | 68 | 0 | 0.0 | 0.0 | 0.00 | 0.18 | 0.01 | 99 | 1017.0 |
| 20260504212522 | 69 | 0 | 0.0 | 0.0 | 0.00 | 0.18 | 0.01 | 99 | 1017.1 |
| 20260504212022 | 69 | 0 | 0.0 | 0.0 | 0.00 | 0.18 | 0.01 | 99 | 1016.8 |
| 20260504211522 | 67 | 0 | 0.0 | 0.0 | 0.00 | 0.18 | 0.01 | 99 | 1016.6 |
| 20260504211022 | 67 | 0 | 0.0 | 0.0 | 0.00 | 0.18 | 0.01 | 99 | 1016.7 |
| 20260504210522 | 67 | 0 | 0.0 | 0.0 | 0.00 | 0.18 | 0.01 | 99 | 1016.6 |
| 20260504210001 | 67 | 0 | 0.0 | 0.0 | 0.00 | 0.18 | 0.01 | 99 | 1016.6 |
| 20260504205501 | 67 | 0 | 0.0 | 0.0 | 0.00 | 0.18 | 0.01 | 99 | 1016.5 |
| 20260504205001 | 67 | 0 | 0.0 | 0.0 | 0.00 | 0.18 | 0.01 | 99 | 1016.2 |
| 20260504204501 | 66 | 0 | 0.0 | 0.0 | 0.00 | 0.18 | 0.01 | 99 | 1016.5 |
| 20260504204001 | 65 | 0 | 0.0 | 0.0 | 0.00 | 0.18 | 0.01 | 99 | 1016.2 |
| 20260504203523 | 64 | 0 | 0.0 | 0.0 | 0.00 | 0.18 | 0.01 | 99 | 1015.9 |
| 20260504203001 | 64 | 0 | 0.0 | 0.0 | 0.00 | 0.18 | 0.01 | 99 | 1016.0 |
| 20260504202501 | 64 | 0 | 0.0 | 0.0 | 0.00 | 0.18 | 0.01 | 99 | 1016.1 |
| 20260504202001 | 64 | 0 | 0.0 | 0.0 | 0.00 | 0.18 | 0.01 | 99 | 1015.9 |
| 20260504201522 | 64 | 0 | 0.0 | 0.0 | 0.00 | 0.18 | 0.01 | 99 | 1015.7 |
| 20260504201001 | 64 | 0 | 0.0 | 0.0 | 0.00 | 0.18 | 0.01 | 99 | 1015.8 |
| 20260504200501 | 64 | 0 | 0.0 | 0.0 | 0.00 | 0.18 | 0.01 | 99 | 1015.9 |
| 20260504200001 | 64 | 0 | 0.0 | 0.0 | 0.00 | 0.18 | 0.01 | 99 | 1015.8 |
| 20260504195501 | 63 | 0 | 0.0 | 0.0 | 0.00 | 0.18 | 0.01 | 99 | 1015.8 |
| 20260504195001 | 63 | 0 | 0.0 | 0.0 | 0.00 | 0.18 | 0.01 | 99 | 1015.7 |
| 20260504194501 | 63 | 0 | 0.0 | 0.0 | 0.00 | 0.18 | 0.01 | 99 | 1015.7 |
| 20260504194001 | 64 | 0 | 0.0 | 0.0 | 0.00 | 0.18 | 0.01 | 99 | 1015.7 |
| 20260504193502 | 64 | 0 | 0.0 | 0.0 | 0.00 | 0.18 | 0.01 | 99 | 1015.8 |
| 20260504193001 | 65 | 0 | 0.0 | 0.0 | 0.00 | 0.18 | 0.01 | 99 | 1015.7 |
| 20260504192501 | 66 | 0 | 0.0 | 0.0 | 0.00 | 0.18 | 0.01 | 99 | 1015.6 |
| 20260504192001 | 66 | 0 | 0.0 | 0.0 | 0.00 | 0.18 | 0.01 | 99 | 1015.6 |
| 20260504191501 | 66 | 0 | 0.0 | 0.0 | 0.00 | 0.18 | 0.01 | 99 | 1015.6 |
| 20260504191001 | 65 | 0 | 0.0 | 0.0 | 0.00 | 0.18 | 0.01 | 99 | 1015.6 |
| 20260504190501 | 65 | 0 | 0.0 | 0.0 | 0.00 | 0.18 | 0.01 | 99 | 1015.6 |
| 20260504190001 | 65 | 0 | 0.0 | 0.0 | 0.00 | 0.18 | 0.01 | 99 | 1015.4 |
| 20260504185501 | 65 | 0 | 0.0 | 0.0 | 0.00 | 0.18 | 0.01 | 99 | 1015.3 |
| 20260504185001 | 65 | 0 | 0.0 | 0.0 | 0.00 | 0.18 | 0.01 | 99 | 1015.1 |
| 20260504184501 | 65 | 0 | 0.0 | 0.0 | 0.00 | 0.18 | 0.01 | 99 | 1015.3 |
| 20260504184002 | 64 | 0 | 0.0 | 0.0 | 0.00 | 0.18 | 0.01 | 99 | 1015.2 |
| 20260504183502 | 64 | 0 | 0.0 | 0.0 | 0.00 | 0.18 | 0.01 | 99 | 1015.0 |
| 20260504183022 | 64 | 0 | 0.0 | 0.0 | 0.00 | 0.18 | 0.01 | 99 | 1014.8 |
| 20260504182501 | 64 | 0 | 0.0 | 0.0 | 0.00 | 0.18 | 0.01 | 99 | 1014.9 |
| 20260504182022 | 64 | 0 | 0.0 | 0.0 | 0.00 | 0.18 | 0.01 | 99 | 1015.0 |
| 20260504181501 | 64 | 0 | 0.0 | 0.0 | 0.00 | 0.18 | 0.01 | 99 | 1015.1 |
| 20260504181001 | 65 | 0 | 0.0 | 0.0 | 0.00 | 0.18 | 0.01 | 99 | 1015.1 |
| 20260504180522 | 65 | 0 | 0.0 | 0.0 | 0.00 | 0.18 | 0.01 | 99 | 1015.2 |
| 20260504180001 | 65 | 0 | 0.0 | 0.0 | 0.00 | 0.18 | 0.01 | 99 | 1014.9 |
| 20260504175501 | 65 | 0 | 0.0 | 0.0 | 0.01 | 0.18 | 0.01 | 99 | 1015.1 |
| 20260504175001 | 65 | 0 | 0.0 | 0.0 | 0.01 | 0.18 | 0.01 | 99 | 1015.1 |
| 20260504174501 | 64 | 0 | 0.0 | 0.0 | 0.01 | 0.18 | 0.01 | 99 | 1015.1 |
| 20260504174002 | 65 | 0 | 0.0 | 0.0 | 0.01 | 0.18 | 0.01 | 99 | 1015.2 |
| 20260504173523 | 65 | 0 | 0.0 | 0.0 | 0.01 | 0.18 | 0.01 | 99 | 1015.0 |
| 20260504173002 | 64 | 0 | 0.0 | 0.0 | 0.01 | 0.18 | 0.01 | 99 | 1015.2 |
| 20260504172501 | 64 | 0 | 0.0 | 0.0 | 0.01 | 0.18 | 0.01 | 99 | 1015.2 |
| 20260504172002 | 64 | 0 | 0.0 | 0.0 | 0.01 | 0.18 | 0.01 | 99 | 1015.2 |
| 20260504171501 | 65 | 0 | 0.0 | 0.0 | 0.01 | 0.18 | 0.01 | 99 | 1015.2 |
| 20260504171023 | 64 | 0 | 0.0 | 0.0 | 0.01 | 0.18 | 0.01 | 99 | 1015.3 |
| 20260504170523 | 64 | 0 | 0.0 | 0.0 | 0.01 | 0.18 | 0.01 | 99 | 1015.2 |
| 20260504151002 | 65 | 0 | 0.0 | 0.0 | 0.00 | 0.19 | 0.00 | 99 | 1016.0 |
| 20260504150501 | 65 | 0 | 0.0 | 0.0 | 0.00 | 0.19 | 0.00 | 99 | 1016.0 |
| 20260504141023 | 66 | 0 | 0.0 | 0.0 | 0.00 | 0.19 | 0.00 | 99 | 1016.2 |
| 20260504140502 | 66 | 0 | 0.0 | 0.0 | 0.00 | 0.19 | 0.00 | 99 | 1016.2 |
| 20260504130502 | 67 | 0 | 0.0 | 0.0 | 0.00 | 0.19 | 0.19 | 99 | 1016.5 |
| 20260504110502 | 68 | 0 | 0.0 | 0.0 | 0.00 | 0.20 | 0.19 | 95 | 1017.1 |
| 20260504100502 | 69 | 0 | 0.0 | 0.0 | 0.06 | 0.20 | 0.19 | 93 | 1016.8 |
| 20260504082002 | 71 | 0 | 0.0 | 0.0 | 0.05 | 0.09 | 0.07 | 90 | 1015.6 |
| 20260504081502 | 72 | 0 | 0.0 | 0.0 | 0.05 | 0.11 | 0.07 | 88 | 1015.6 |
| 20260504081003 | 72 | 0 | 0.0 | 0.0 | 0.05 | 0.14 | 0.07 | 88 | 1015.7 |
| 20260504080503 | 72 | 0 | 0.0 | 0.0 | 0.05 | 0.17 | 0.07 | 88 | 1015.5 |
| 20260504050503 | 80 | 0 | 0.0 | 0.0 | 0.00 | 0.15 | 0.02 | 65 | 1014.4 |
| 20260504050003 | 79 | 0 | 0.0 | 0.0 | 0.00 | 0.15 | 0.02 | 66 | 1014.4 |
| 20260504045524 | 80 | 112 | 0.0 | 1.7 | 0.00 | 0.15 | 0.02 | 70 | 1014.5 |
| 20260504045003 | 80 | 112 | 0.0 | 1.7 | 0.00 | 0.17 | 0.02 | 71 | 1014.5 |
| 20260504044524 | 80 | 157 | 0.0 | 1.7 | 0.00 | 0.19 | 0.02 | 69 | 1014.5 |
| 20260504044004 | 80 | 157 | 0.0 | 1.7 | 0.00 | 0.19 | 0.02 | 70 | 1014.7 |
| 20260504043504 | 79 | 0 | 0.0 | 0.0 | 0.00 | 0.19 | 0.02 | 73 | 1014.4 |
| 20260504043004 | 80 | 0 | 0.0 | 0.0 | 0.00 | 0.19 | 0.02 | 71 | 1014.8 |
| 20260504042503 | 80 | 0 | 0.0 | 0.0 | 0.00 | 0.19 | 0.02 | 72 | 1014.7 |
| 20260504042003 | 79 | 0 | 0.0 | 0.0 | 0.00 | 0.19 | 0.02 | 74 | 1014.5 |
| 20260504041503 | 80 | 0 | 0.0 | 0.0 | 0.00 | 0.19 | 0.02 | 73 | 1014.7 |
| 20260504041003 | 81 | 0 | 0.0 | 0.0 | 0.00 | 0.19 | 0.02 | 72 | 1014.7 |
| 20260504040524 | 80 | 0 | 0.0 | 0.0 | 0.00 | 0.19 | 0.02 | 72 | 1014.7 |
| 20260504040024 | 81 | 0 | 0.0 | 0.0 | 0.00 | 0.19 | 0.02 | 70 | 1014.5 |
| 20260504035503 | 81 | 0 | 0.0 | 0.0 | 0.00 | 0.19 | 0.02 | 75 | 1014.8 |
| 20260504035003 | 81 | 0 | 0.0 | 0.0 | 0.00 | 0.20 | 0.02 | 72 | 1014.6 |
| 20260504034503 | 82 | 0 | 0.0 | 0.0 | 0.00 | 0.20 | 0.02 | 71 | 1014.7 |
| 20260504034003 | 81 | 45 | 0.0 | 1.7 | 0.00 | 0.20 | 0.02 | 71 | 1014.4 |
| 20260504033504 | 81 | 45 | 0.0 | 1.7 | 0.00 | 0.20 | 0.02 | 74 | 1014.6 |
| 20260504033004 | 80 | 0 | 0.0 | 0.0 | 0.00 | 0.20 | 0.02 | 74 | 1014.8 |
| 20260504032524 | 80 | 90 | 0.0 | 3.5 | 0.00 | 0.20 | 0.02 | 75 | 1015.1 |
| 20260504032024 | 79 | 90 | 0.0 | 3.5 | 0.00 | 0.20 | 0.02 | 77 | 1015.1 |
| 20260504031503 | 80 | 0 | 0.0 | 0.0 | 0.00 | 0.20 | 0.02 | 76 | 1014.9 |
| 20260504031003 | 80 | 0 | 0.0 | 0.0 | 0.00 | 0.20 | 0.02 | 74 | 1015.2 |
| 20260504030503 | 78 | 0 | 0.0 | 0.0 | 0.00 | 0.20 | 0.02 | 76 | 1015.2 |
| 20260504030024 | 79 | 85 | 0.0 | 1.7 | 0.00 | 0.20 | 0.02 | 74 | 1015.2 |
| 20260504025503 | 81 | 85 | 0.0 | 1.7 | 0.00 | 0.20 | 0.02 | 74 | 1015.1 |
| 20260504025003 | 81 | 0 | 0.0 | 0.0 | 0.00 | 0.20 | 0.02 | 74 | 1015.5 |
| 20260504024503 | 80 | 0 | 0.0 | 0.0 | 0.00 | 0.20 | 0.02 | 74 | 1015.6 |
| 20260504024003 | 81 | 0 | 0.0 | 0.0 | 0.00 | 0.20 | 0.02 | 74 | 1015.6 |
| 20260504023504 | 80 | 112 | 0.0 | 1.7 | 0.00 | 0.20 | 0.02 | 77 | 1015.7 |
| 20260504023004 | 79 | 112 | 0.0 | 1.7 | 0.00 | 0.20 | 0.02 | 75 | 1015.8 |
| 20260504022503 | 80 | 112 | 0.0 | 1.7 | 0.00 | 0.20 | 0.02 | 76 | 1015.7 |
| 20260504022003 | 78 | 95 | 0.0 | 1.7 | 0.00 | 0.20 | 0.02 | 77 | 1015.9 |
| 20260504021503 | 79 | 101 | 0.0 | 1.7 | 0.00 | 0.20 | 0.02 | 77 | 1015.9 |
| 20260504021003 | 79 | 101 | 0.0 | 1.7 | 0.00 | 0.20 | 0.02 | 77 | 1016.0 |
| 20260504020503 | 81 | 67 | 0.0 | 1.7 | 0.00 | 0.20 | 0.02 | 75 | 1016.0 |
| 20260504020003 | 80 | 0 | 0.0 | 0.0 | 0.00 | 0.20 | 0.02 | 77 | 1016.2 |
| 20260504015503 | 81 | 135 | 0.0 | 1.7 | 0.00 | 0.20 | 0.02 | 77 | 1016.4 |
| 20260504015003 | 80 | 135 | 0.0 | 1.7 | 0.00 | 0.20 | 0.02 | 75 | 1016.3 |
| 20260504014503 | 79 | 0 | 0.0 | 0.0 | 0.00 | 0.20 | 0.02 | 78 | 1016.5 |
| 20260504014004 | 79 | 0 | 0.0 | 0.0 | 0.00 | 0.20 | 0.02 | 80 | 1016.6 |
| 20260504013504 | 78 | 0 | 0.0 | 0.0 | 0.00 | 0.20 | 0.02 | 80 | 1016.8 |
| 20260504013004 | 78 | 0 | 0.0 | 0.0 | 0.00 | 0.20 | 0.02 | 80 | 1016.9 |
| 20260504012503 | 78 | 90 | 0.0 | 1.7 | 0.00 | 0.20 | 0.02 | 81 | 1016.7 |
| 20260504012003 | 78 | 90 | 0.0 | 1.7 | 0.00 | 0.20 | 0.02 | 80 | 1016.6 |
| 20260504011503 | 78 | 157 | 0.0 | 1.7 | 0.00 | 0.20 | 0.02 | 81 | 1016.9 |
| 20260504011003 | 79 | 157 | 0.0 | 1.7 | 0.00 | 0.20 | 0.02 | 82 | 1017.1 |
| 20260504010503 | 78 | 0 | 0.0 | 0.0 | 0.00 | 0.20 | 0.02 | 81 | 1017.1 |
| 20260504010001 | 78 | 0 | 0.0 | 0.0 | 0.00 | 0.20 | 0.02 | 80 | 1017.3 |
| 20260504005500 | 77 | 0 | 0.0 | 0.0 | 0.00 | 0.20 | 0.02 | 83 | 1017.3 |
| 20260504005000 | 77 | 103 | 0.0 | 1.7 | 0.00 | 0.20 | 0.02 | 83 | 1017.3 |
| 20260504004501 | 77 | 103 | 0.0 | 1.7 | 0.00 | 0.20 | 0.02 | 84 | 1017.5 |
| 20260504004000 | 77 | 0 | 0.0 | 0.0 | 0.00 | 0.20 | 0.02 | 86 | 1017.6 |
| 20260504003501 | 77 | 90 | 0.0 | 1.7 | 0.00 | 0.20 | 0.02 | 84 | 1017.6 |
| 20260504003022 | 78 | 90 | 0.0 | 1.7 | 0.00 | 0.20 | 0.02 | 84 | 1017.4 |
| 20260504002501 | 77 | 90 | 0.0 | 1.7 | 0.00 | 0.20 | 0.02 | 86 | 1017.4 |
| 20260504002001 | 78 | 120 | 0.0 | 1.7 | 0.00 | 0.20 | 0.02 | 85 | 1017.5 |
| 20260504001501 | 76 | 120 | 0.0 | 1.7 | 0.00 | 0.20 | 0.02 | 86 | 1017.3 |
| 20260504001001 | 77 | 0 | 0.0 | 0.0 | 0.00 | 0.20 | 0.02 | 86 | 1017.4 |
| 20260504000501 | 77 | 0 | 0.0 | 0.0 | 0.00 | 0.20 | 0.02 | 86 | 1017.5 |
| 20260504000022 | 76 | 90 | 0.0 | 1.7 | 0.00 | 0.20 | 0.02 | 87 | 1017.5 |
| 20260503235501 | 76 | 78 | 0.0 | 1.7 | 0.00 | 0.20 | 0.02 | 85 | 1017.4 |
| 20260503235001 | 77 | 67 | 0.0 | 1.7 | 0.00 | 0.20 | 0.02 | 85 | 1017.6 |
| 20260503234522 | 76 | 0 | 0.0 | 0.0 | 0.00 | 0.20 | 0.02 | 86 | 1017.5 |
| 20260503234001 | 77 | 157 | 0.0 | 1.7 | 0.00 | 0.20 | 0.02 | 87 | 1017.5 |
| 20260503233502 | 77 | 157 | 0.0 | 1.7 | 0.00 | 0.20 | 0.02 | 87 | 1017.6 |
| 20260503233002 | 78 | 90 | 0.0 | 1.7 | 0.00 | 0.20 | 0.02 | 86 | 1017.5 |
| 20260503232522 | 76 | 90 | 0.0 | 1.7 | 0.00 | 0.20 | 0.02 | 88 | 1017.7 |
| 20260503232001 | 76 | 86 | 0.0 | 3.5 | 0.00 | 0.20 | 0.02 | 87 | 1017.7 |
| 20260503231501 | 76 | 77 | 0.0 | 3.5 | 0.00 | 0.20 | 0.02 | 90 | 1017.4 |
| 20260503231022 | 76 | 67 | 0.0 | 3.5 | 0.00 | 0.20 | 0.02 | 89 | 1017.5 |
| 20260503230522 | 76 | 0 | 0.0 | 0.0 | 0.00 | 0.20 | 0.02 | 90 | 1017.6 |
| 20260503230001 | 76 | 112 | 0.0 | 1.7 | 0.00 | 0.20 | 0.02 | 89 | 1017.6 |
| 20260503225522 | 75 | 112 | 0.0 | 1.7 | 0.00 | 0.20 | 0.02 | 89 | 1017.6 |
| 20260503225001 | 75 | 90 | 0.0 | 1.7 | 0.00 | 0.20 | 0.02 | 90 | 1017.5 |
| 20260503224502 | 75 | 90 | 0.0 | 1.7 | 0.00 | 0.20 | 0.02 | 91 | 1017.7 |